Time;durP1;ratioP1;P1;durP2;ratioP2;P2;SDS_P1;SDS_P2;PMS_P1;PMS_P2;Temp;Humidity;BMP_temperature;BMP_pressure;BME280_temperature;BME280_humidity;BME280_pressure;Samples;Min_cycle;Max_cycle;Signal;HPM_P1;HPM_P2
2024/01/29 00:00:59;;;;;;;;;;;102.90;2227.20;;;;;;5092453;28;19908;-78
2024/01/29 00:03:25;;;;;;;;;;;102.90;2227.20;;;;;;5086969;28;20357;-78
2024/01/29 00:05:51;;;;;;;;;;;102.70;2227.20;;;;;;5084859;28;19907;-78
2024/01/29 00:08:17;;;;;;;;;;;102.80;2227.20;;;;;;5090025;28;19904;-79
2024/01/29 00:10:42;;;;;;;;;;;102.90;2227.20;;;;;;5087740;28;19964;-79
2024/01/29 00:13:08;;;;;;;;;;;103.10;2227.20;;;;;;5085189;28;20272;-79
2024/01/29 00:15:34;;;;;;;;;;;103.20;2227.20;;;;;;5080751;28;20291;-78
2024/01/29 00:18:00;;;;;;;;;;;103.30;2227.20;;;;;;5104377;28;20334;-79
2024/01/29 00:20:26;;;;;;;;;;;103.30;2227.20;;;;;;5088046;28;20319;-78
2024/01/29 00:22:51;;;;;;;;;;;103.30;2227.20;;;;;;5093639;28;19910;-78
2024/01/29 00:25:17;;;;;;;;;;;103.30;2227.20;;;;;;5095088;28;20283;-78
2024/01/29 00:27:43;;;;;;;;;;;103.30;2227.20;;;;;;5096005;28;19919;-78
2024/01/29 00:30:09;;;;;;;;;;;103.30;2227.20;;;;;;5098689;28;19904;-79
2024/01/29 00:32:34;;;;;;;;;;;103.30;2227.20;;;;;;5099091;28;19914;-78
2024/01/29 00:35:00;;;;;;;;;;;103.30;2227.20;;;;;;5098699;28;19904;-78
2024/01/29 00:37:26;;;;;;;;;;;103.30;2227.20;;;;;;5117313;28;19938;-78
2024/01/29 00:39:52;;;;;;;;;;;103.30;2227.20;;;;;;5098752;28;19911;-78
2024/01/29 00:42:18;;;;;;;;;;;103.30;2227.20;;;;;;5117193;28;20296;-78
2024/01/29 00:44:44;;;;;;;;;;;128.00;2252.80;;;;;;5115746;28;19911;-79
2024/01/29 00:47:10;;;;;;;;;;;128.00;2252.80;;;;;;5117016;28;19998;-79
2024/01/29 00:49:36;;;;;;;;;;;103.20;2227.20;;;;;;5116710;28;19992;-78
2024/01/29 00:52:04;;;;;;;;;;;103.30;2227.20;;;;;;5116772;28;19907;-78
2024/01/29 00:54:30;;;;;;;;;;;103.30;2227.20;;;;;;5116831;28;19915;-78
2024/01/29 00:56:55;;;;;;;;;;;103.10;2227.20;;;;;;5098450;28;19957;-78
2024/01/29 00:59:21;;;;;;;;;;;103.10;2227.20;;;;;;5098391;28;19911;-78
2024/01/29 01:01:46;;;;;;;;;;;103.00;2227.20;;;;;;5098350;28;19904;-79
2024/01/29 01:04:12;;;;;;;;;;;103.10;2227.20;;;;;;5098215;28;19911;-78
2024/01/29 01:06:38;;;;;;;;;;;103.20;2227.20;;;;;;5107862;28;19927;-78
2024/01/29 01:09:03;;;;;;;;;;;103.20;2227.20;;;;;;5116399;28;19904;-78
2024/01/29 01:11:29;;;;;;;;;;;103.30;2227.20;;;;;;5097957;28;19911;-78
2024/01/29 01:13:54;;;;;;;;;;;103.20;2227.20;;;;;;5084282;28;19907;-79
2024/01/29 01:16:20;;;;;;;;;;;103.10;2227.20;;;;;;5098137;28;19928;-80
2024/01/29 01:18:46;;;;;;;;;;;102.80;2227.20;;;;;;5116493;28;19904;-79
2024/01/29 01:21:11;;;;;;;;;;;102.40;2227.20;;;;;;5097979;28;19904;-78
2024/01/29 01:23:38;;;;;;;;;;;77.70;2227.20;;;;;;5097393;28;20325;-78
2024/01/29 01:26:04;;;;;;;;;;;102.40;2227.20;;;;;;5098012;28;19911;-78
2024/01/29 01:28:29;;;;;;;;;;;102.40;2227.20;;;;;;5098056;28;19926;-78
2024/01/29 01:30:55;;;;;;;;;;;102.40;2227.20;;;;;;5098148;28;19953;-78
2024/01/29 01:33:21;;;;;;;;;;;102.50;2227.20;;;;;;5097888;28;19927;-79
2024/01/29 01:35:46;;;;;;;;;;;102.50;2227.20;;;;;;5097762;28;19908;-80
2024/01/29 01:38:12;;;;;;;;;;;102.50;2227.20;;;;;;5116245;28;19904;-80
2024/01/29 01:40:37;;;;;;;;;;;77.70;2227.20;;;;;;5097191;28;19994;-79
2024/01/29 01:43:16;;;;;;;;;;;77.70;2227.20;;;;;;5097911;28;19907;-79
2024/01/29 01:45:42;;;;;;;;;;;102.40;2227.20;;;;;;5097730;28;19986;-79
2024/01/29 01:48:07;;;;;;;;;;;102.40;2227.20;;;;;;5116098;28;20327;-79
2024/01/29 01:50:33;;;;;;;;;;;102.50;2227.20;;;;;;5114648;28;19998;-80
2024/01/29 01:52:59;;;;;;;;;;;102.60;2227.20;;;;;;5115440;28;19919;-78
2024/01/29 01:55:25;;;;;;;;;;;102.60;2227.20;;;;;;5115125;28;19916;-79
2024/01/29 01:57:50;;;;;;;;;;;102.70;2227.20;;;;;;5084650;28;19904;-79
2024/01/29 02:00:16;;;;;;;;;;;102.50;2227.20;;;;;;5115372;28;19903;-78
2024/01/29 02:02:42;;;;;;;;;;;102.50;2227.20;;;;;;5097676;28;20353;-79
2024/01/29 02:05:08;;;;;;;;;;;102.50;2227.20;;;;;;5097068;28;20365;-78
2024/01/29 02:07:33;;;;;;;;;;;102.50;2227.20;;;;;;5097563;28;19967;-78
2024/01/29 02:09:59;;;;;;;;;;;102.60;2227.20;;;;;;5097041;28;20309;-78
2024/01/29 02:12:25;;;;;;;;;;;102.50;2227.20;;;;;;5097437;28;19907;-78
2024/01/29 02:14:51;;;;;;;;;;;102.60;2227.20;;;;;;5115393;28;19938;-79
2024/01/29 02:17:17;;;;;;;;;;;102.60;2227.20;;;;;;5096950;28;19904;-77
2024/01/29 02:19:42;;;;;;;;;;;102.70;2227.20;;;;;;5096454;28;19904;-78
2024/01/29 02:22:08;;;;;;;;;;;102.70;2227.20;;;;;;5096818;28;19908;-78
2024/01/29 02:24:33;;;;;;;;;;;102.70;2227.20;;;;;;5096739;28;20003;-78
2024/01/29 02:26:59;;;;;;;;;;;102.60;2227.20;;;;;;5096363;28;20323;-78
2024/01/29 02:29:25;;;;;;;;;;;102.60;2227.20;;;;;;5096777;28;19908;-78
2024/01/29 02:31:50;;;;;;;;;;;102.70;2227.20;;;;;;5097130;28;20409;-78
2024/01/29 02:34:16;;;;;;;;;;;102.50;2227.20;;;;;;5096883;28;19910;-79
2024/01/29 02:36:41;;;;;;;;;;;77.70;2227.20;;;;;;5096820;28;19904;-79
2024/01/29 02:39:08;;;;;;;;;;;77.50;2227.20;;;;;;5114153;28;19910;-80
2024/01/29 02:41:33;;;;;;;;;;;77.50;2227.20;;;;;;5114888;28;19960;-78
2024/01/29 02:43:59;;;;;;;;;;;77.70;2227.20;;;;;;5096812;28;19903;-78
2024/01/29 02:46:24;;;;;;;;;;;77.70;2227.20;;;;;;5096667;28;19965;-78
2024/01/29 02:48:50;;;;;;;;;;;77.70;2227.20;;;;;;5096419;28;20070;-78
2024/01/29 02:51:16;;;;;;;;;;;77.70;2227.20;;;;;;5099781;28;19903;-80
2024/01/29 02:53:41;;;;;;;;;;;77.70;2227.20;;;;;;5114292;28;19947;-80
2024/01/29 02:56:07;;;;;;;;;;;77.70;2227.20;;;;;;5095455;28;19908;-78
2024/01/29 02:58:32;;;;;;;;;;;77.70;2227.20;;;;;;5096074;28;19960;-78
2024/01/29 03:00:58;;;;;;;;;;;77.70;2227.20;;;;;;5096854;28;19949;-79
2024/01/29 03:03:23;;;;;;;;;;;102.40;2227.20;;;;;;5096700;28;19904;-78
2024/01/29 03:05:49;;;;;;;;;;;77.70;2227.20;;;;;;5096032;28;19918;-77
2024/01/29 03:08:15;;;;;;;;;;;77.60;2227.20;;;;;;5095785;28;20379;-78
2024/01/29 03:10:40;;;;;;;;;;;77.50;2227.20;;;;;;5096099;28;19904;-79
2024/01/29 03:13:06;;;;;;;;;;;77.50;2227.20;;;;;;5106640;28;20258;-78
2024/01/29 03:15:31;;;;;;;;;;;77.60;2227.20;;;;;;5096282;28;19994;-78
2024/01/29 03:17:57;;;;;;;;;;;77.40;2227.20;;;;;;5082081;28;19985;-78
2024/01/29 03:20:23;;;;;;;;;;;77.40;2227.20;;;;;;5096242;28;20271;-78
2024/01/29 03:22:48;;;;;;;;;;;77.50;2227.20;;;;;;5082639;28;19915;-78
2024/01/29 03:25:14;;;;;;;;;;;77.50;2227.20;;;;;;5095822;28;19919;-78
2024/01/29 03:27:39;;;;;;;;;;;77.50;2227.20;;;;;;5096140;28;20349;-78
2024/01/29 03:30:05;;;;;;;;;;;77.50;2227.20;;;;;;5096156;28;19904;-78
2024/01/29 03:32:31;;;;;;;;;;;77.50;2227.20;;;;;;5095535;28;20357;-78
2024/01/29 03:34:56;;;;;;;;;;;77.60;2227.20;;;;;;5095380;28;20369;-78
2024/01/29 03:37:22;;;;;;;;;;;77.60;2227.20;;;;;;5095011;28;19917;-78
2024/01/29 03:39:48;;;;;;;;;;;77.60;2227.20;;;;;;5082616;28;19927;-78
2024/01/29 03:42:13;;;;;;;;;;;77.50;2227.20;;;;;;5095738;28;19911;-79
2024/01/29 03:44:39;;;;;;;;;;;77.50;2227.20;;;;;;5114225;28;19926;-78
2024/01/29 03:47:04;;;;;;;;;;;77.50;2227.20;;;;;;5112984;28;19916;-78
2024/01/29 03:49:30;;;;;;;;;;;77.60;2227.20;;;;;;5095966;28;19989;-78
2024/01/29 03:51:56;;;;;;;;;;;77.60;2227.20;;;;;;5113435;28;19915;-78
2024/01/29 03:54:21;;;;;;;;;;;77.70;2227.20;;;;;;5095021;28;19916;-79
2024/01/29 03:56:47;;;;;;;;;;;77.70;2227.20;;;;;;5113199;28;19904;-78
2024/01/29 03:59:13;;;;;;;;;;;77.60;2227.20;;;;;;5095372;28;19904;-80
2024/01/29 04:01:38;;;;;;;;;;;77.60;2227.20;;;;;;5095904;28;19903;-77
2024/01/29 04:04:04;;;;;;;;;;;77.60;2227.20;;;;;;5097912;28;19907;-78
2024/01/29 04:06:29;;;;;;;;;;;77.60;2227.20;;;;;;5105669;28;20327;-78
2024/01/29 04:08:55;;;;;;;;;;;77.60;2227.20;;;;;;5085614;28;19908;-77
2024/01/29 04:11:21;;;;;;;;;;;77.60;2227.20;;;;;;5085564;28;20367;-78
2024/01/29 04:13:46;;;;;;;;;;;77.60;2227.20;;;;;;5085845;28;19954;-78
2024/01/29 04:16:12;;;;;;;;;;;77.60;2227.20;;;;;;5084278;28;20429;-79
2024/01/29 04:18:38;;;;;;;;;;;77.60;2227.20;;;;;;5087013;28;19926;-79
2024/01/29 04:21:05;;;;;;;;;;;77.60;2227.20;;;;;;5109853;28;19908;-78
2024/01/29 04:23:30;;;;;;;;;;;77.50;2227.20;;;;;;5089550;28;19911;-79
2024/01/29 04:25:56;;;;;;;;;;;77.60;2227.20;;;;;;5092709;28;20400;-78
2024/01/29 04:28:22;;;;;;;;;;;77.70;2227.20;;;;;;5095055;28;19960;-78
2024/01/29 04:30:47;;;;;;;;;;;77.50;2227.20;;;;;;5094091;28;19907;-78
2024/01/29 04:33:13;;;;;;;;;;;77.60;2227.20;;;;;;5092311;28;20004;-78
2024/01/29 04:35:38;;;;;;;;;;;77.60;2227.20;;;;;;5085519;28;19915;-79
2024/01/29 04:38:04;;;;;;;;;;;77.60;2227.20;;;;;;5083602;28;19951;-79
2024/01/29 04:40:30;;;;;;;;;;;77.50;2227.20;;;;;;5086790;28;19908;-79
2024/01/29 04:42:55;;;;;;;;;;;77.60;2227.20;;;;;;5082782;28;19934;-77
2024/01/29 04:45:21;;;;;;;;;;;77.70;2227.20;;;;;;5092174;28;19908;-78
2024/01/29 04:47:46;;;;;;;;;;;77.70;2227.20;;;;;;5096017;28;20373;-78
2024/01/29 04:50:12;;;;;;;;;;;77.70;2227.20;;;;;;5088127;28;19934;-78
2024/01/29 04:52:38;;;;;;;;;;;102.40;2227.20;;;;;;5080627;28;19944;-77
2024/01/29 04:55:03;;;;;;;;;;;102.40;2227.20;;;;;;5082755;28;19969;-78
2024/01/29 04:57:29;;;;;;;;;;;102.40;2227.20;;;;;;5103691;28;19904;-78
2024/01/29 04:59:55;;;;;;;;;;;102.40;2227.20;;;;;;5087518;28;19908;-79
2024/01/29 05:02:21;;;;;;;;;;;102.40;2227.20;;;;;;5088594;28;19903;-79
2024/01/29 05:04:46;;;;;;;;;;;102.40;2227.20;;;;;;5105349;28;19915;-78
2024/01/29 05:07:12;;;;;;;;;;;102.40;2227.20;;;;;;5101196;28;19911;-78
2024/01/29 05:09:38;;;;;;;;;;;77.70;2227.20;;;;;;5088498;28;20425;-79
2024/01/29 05:12:05;;;;;;;;;;;77.70;2227.20;;;;;;5085508;28;20419;-79
2024/01/29 05:14:30;;;;;;;;;;;77.70;2227.20;;;;;;5088125;28;19904;-78
2024/01/29 05:16:56;;;;;;;;;;;77.60;2227.20;;;;;;5101418;28;19970;-78
2024/01/29 05:19:22;;;;;;;;;;;77.30;2227.20;;;;;;5104144;28;19965;-79
2024/01/29 05:21:48;;;;;;;;;;;77.10;2227.20;;;;;;5105161;28;19915;-79
2024/01/29 05:24:13;;;;;;;;;;;76.80;2227.20;;;;;;5087278;28;19912;-78
2024/01/29 05:26:39;;;;;;;;;;;76.80;2227.20;;;;;;5102429;28;19916;-79
2024/01/29 05:29:04;;;;;;;;;;;76.80;2227.20;;;;;;5111636;28;19912;-78
2024/01/29 05:31:30;;;;;;;;;;;52.00;2227.20;;;;;;5105155;28;20393;-79
2024/01/29 05:33:56;;;;;;;;;;;51.90;2227.20;;;;;;5096598;28;19987;-79
2024/01/29 05:36:21;;;;;;;;;;;52.00;2227.20;;;;;;5093141;28;20037;-78
2024/01/29 05:38:47;;;;;;;;;;;76.80;2227.20;;;;;;5105810;28;19908;-78
2024/01/29 05:41:12;;;;;;;;;;;76.80;2227.20;;;;;;5102819;28;19915;-78
2024/01/29 05:43:38;;;;;;;;;;;76.90;2227.20;;;;;;5109519;28;20315;-78
2024/01/29 05:46:03;;;;;;;;;;;76.90;2227.20;;;;;;5104853;28;19915;-78
2024/01/29 05:48:29;;;;;;;;;;;76.90;2227.20;;;;;;5107693;28;19919;-79
2024/01/29 05:50:55;;;;;;;;;;;77.00;2227.20;;;;;;5090853;28;19958;-77
2024/01/29 05:53:21;;;;;;;;;;;77.00;2227.20;;;;;;5090768;28;19915;-78
2024/01/29 05:55:46;;;;;;;;;;;77.00;2227.20;;;;;;5110209;28;20082;-79
2024/01/29 05:58:12;;;;;;;;;;;77.00;2227.20;;;;;;5089042;28;19903;-79
2024/01/29 06:00:37;;;;;;;;;;;77.00;2227.20;;;;;;5083912;28;19908;-75
2024/01/29 06:03:03;;;;;;;;;;;77.00;2227.20;;;;;;5109079;28;19908;-76
2024/01/29 06:05:29;;;;;;;;;;;77.00;2227.20;;;;;;5103139;28;19960;-78
2024/01/29 06:07:55;;;;;;;;;;;77.00;2227.20;;;;;;5085952;28;19952;-77
2024/01/29 06:10:21;;;;;;;;;;;77.00;2227.20;;;;;;5092884;28;20000;-78
2024/01/29 06:12:47;;;;;;;;;;;77.00;2227.20;;;;;;5085657;28;19961;-78
2024/01/29 06:15:13;;;;;;;;;;;77.00;2227.20;;;;;;5087678;28;19914;-77
2024/01/29 06:17:39;;;;;;;;;;;76.90;2227.20;;;;;;5093069;28;20292;-77
2024/01/29 06:20:05;;;;;;;;;;;76.90;2227.20;;;;;;5105125;28;19922;-85
2024/01/29 06:22:30;;;;;;;;;;;77.00;2227.20;;;;;;5104360;28;19907;-79
2024/01/29 06:24:56;;;;;;;;;;;77.00;2227.20;;;;;;5089304;28;19916;-78
2024/01/29 06:27:22;;;;;;;;;;;76.90;2227.20;;;;;;5086820;28;19915;-79
2024/01/29 06:29:47;;;;;;;;;;;77.00;2227.20;;;;;;5084938;28;19922;-79
2024/01/29 06:32:13;;;;;;;;;;;76.90;2227.20;;;;;;5083994;28;19908;-78
2024/01/29 06:34:39;;;;;;;;;;;77.00;2227.20;;;;;;5079826;28;19912;-79
2024/01/29 06:37:04;;;;;;;;;;;77.10;2227.20;;;;;;5080258;28;19912;-78
2024/01/29 06:39:32;;;;;;;;;;;77.00;2227.20;;;;;;5087476;28;20002;-78
2024/01/29 06:41:58;;;;;;;;;;;77.00;2227.20;;;;;;5094906;28;19910;-79
2024/01/29 06:44:23;;;;;;;;;;;77.00;2227.20;;;;;;5088764;28;19908;-78
2024/01/29 06:46:49;;;;;;;;;;;77.10;2227.20;;;;;;5083011;28;20010;-76
2024/01/29 06:49:25;;;;;;;;;;;77.20;2227.20;;;;;;5097485;28;19908;-78
2024/01/29 06:51:50;;;;;;;;;;;77.30;2227.20;;;;;;5086177;28;19960;-79
2024/01/29 06:54:16;;;;;;;;;;;77.40;2227.20;;;;;;5090625;28;20010;-80
2024/01/29 06:56:41;;;;;;;;;;;77.50;2227.20;;;;;;5097550;28;19908;-79
2024/01/29 06:59:07;;;;;;;;;;;77.50;2227.20;;;;;;5081144;28;19914;-80
2024/01/29 07:01:34;;;;;;;;;;;77.60;2227.20;;;;;;5103758;28;19912;-81
2024/01/29 07:03:59;;;;;;;;;;;77.70;2227.20;;;;;;5106664;28;19982;-78
2024/01/29 07:06:25;;;;;;;;;;;77.70;2227.20;;;;;;5092835;28;20390;-78
2024/01/29 07:08:51;;;;;;;;;;;77.70;2227.20;;;;;;5079337;28;20006;-78
2024/01/29 07:11:18;;;;;;;;;;;102.50;2227.20;;;;;;5085077;28;19914;-79
2024/01/29 07:13:43;;;;;;;;;;;102.50;2227.20;;;;;;5091591;28;20018;-78
2024/01/29 07:16:09;;;;;;;;;;;102.70;2227.20;;;;;;5083056;28;20474;-78
2024/01/29 07:18:36;;;;;;;;;;;102.80;2227.20;;;;;;5102848;28;19904;-78
2024/01/29 07:21:02;;;;;;;;;;;102.80;2227.20;;;;;;5104641;28;20330;-80
2024/01/29 07:23:27;;;;;;;;;;;102.50;2227.20;;;;;;5086937;28;19934;-78
2024/01/29 07:25:53;;;;;;;;;;;102.50;2227.20;;;;;;5103370;28;19918;-78
2024/01/29 07:28:19;;;;;;;;;;;102.60;2227.20;;;;;;5098624;28;19919;-79
2024/01/29 07:30:44;;;;;;;;;;;102.80;2227.20;;;;;;5105951;28;19911;-79
2024/01/29 07:33:11;;;;;;;;;;;102.80;2227.20;;;;;;5105768;28;19923;-81
2024/01/29 07:35:37;;;;;;;;;;;102.80;2227.20;;;;;;5080131;28;19908;-78
2024/01/29 07:38:02;;;;;;;;;;;102.90;2227.20;;;;;;5106002;28;19966;-78
2024/01/29 07:40:28;;;;;;;;;;;103.00;2227.20;;;;;;5111304;28;20375;-79
2024/01/29 07:42:53;;;;;;;;;;;103.00;2227.20;;;;;;5104099;28;19998;-78
2024/01/29 07:45:19;;;;;;;;;;;103.10;2227.20;;;;;;5088275;28;20373;-79
2024/01/29 07:47:45;;;;;;;;;;;103.20;2227.20;;;;;;5104938;28;19926;-79
2024/01/29 07:50:10;;;;;;;;;;;103.00;2227.20;;;;;;5092248;28;19911;-79
2024/01/29 07:52:36;;;;;;;;;;;103.30;2227.20;;;;;;5097411;28;20318;-79
2024/01/29 07:55:02;;;;;;;;;;;128.10;2252.80;;;;;;5108631;28;19943;-79
2024/01/29 07:57:27;;;;;;;;;;;128.40;2252.80;;;;;;5110915;28;19908;-79
2024/01/29 07:59:53;;;;;;;;;;;128.40;2252.80;;;;;;5108470;28;19961;-79
2024/01/29 08:02:18;;;;;;;;;;;128.60;2252.80;;;;;;5111497;28;20346;-79
2024/01/29 08:04:44;;;;;;;;;;;128.50;2252.80;;;;;;5117640;28;19918;-79
2024/01/29 08:07:09;;;;;;;;;;;128.70;2252.80;;;;;;5108307;28;19919;-79
2024/01/29 08:09:35;;;;;;;;;;;128.70;2252.80;;;;;;5094912;28;20003;-78
2024/01/29 08:12:01;;;;;;;;;;;128.50;2252.80;;;;;;5110628;28;20322;-79
2024/01/29 08:14:26;;;;;;;;;;;128.50;2252.80;;;;;;5113821;28;19915;-79
2024/01/29 08:16:52;;;;;;;;;;;128.40;2252.80;;;;;;5105824;28;19998;-78
2024/01/29 08:19:17;;;;;;;;;;;128.40;2252.80;;;;;;5112317;28;19908;-77
2024/01/29 08:21:43;;;;;;;;;;;128.60;2252.80;;;;;;5094749;28;19953;-80
2024/01/29 08:24:08;;;;;;;;;;;128.60;2252.80;;;;;;5091208;28;20388;-80
2024/01/29 08:26:34;;;;;;;;;;;128.50;2252.80;;;;;;5117003;28;20172;-81
2024/01/29 08:29:00;;;;;;;;;;;128.60;2252.80;;;;;;5111065;28;19914;-81
2024/01/29 08:31:25;;;;;;;;;;;128.50;2252.80;;;;;;5098409;28;19972;-80
2024/01/29 08:33:51;;;;;;;;;;;128.60;2252.80;;;;;;5098464;28;19903;-80
2024/01/29 08:36:20;;;;;;;;;;;128.80;2252.80;;;;;;5099342;28;19999;-79
2024/01/29 08:38:46;;;;;;;;;;;128.80;2252.80;;;;;;5098229;28;20545;-77
2024/01/29 08:41:12;;;;;;;;;;;128.80;2252.80;;;;;;5107663;28;19934;-78
2024/01/29 08:43:37;;;;;;;;;;;128.70;2252.80;;;;;;5100952;28;19943;-77
2024/01/29 08:46:03;;;;;;;;;;;128.90;2252.80;;;;;;5096929;28;19912;-78
2024/01/29 08:48:29;;;;;;;;;;;128.90;2252.80;;;;;;5110876;28;19912;-78
2024/01/29 08:50:55;;;;;;;;;;;153.70;2252.80;;;;;;5094117;28;19918;-77
2024/01/29 08:53:21;;;;;;;;;;;128.90;2252.80;;;;;;5107710;28;19915;-78
2024/01/29 08:55:46;;;;;;;;;;;128.90;2252.80;;;;;;5097491;28;19912;-78
2024/01/29 08:58:12;;;;;;;;;;;128.80;2252.80;;;;;;5098420;28;19904;-76
2024/01/29 09:00:37;;;;;;;;;;;128.90;2252.80;;;;;;5116434;28;19950;-75
2024/01/29 09:03:03;;;;;;;;;;;128.90;2252.80;;;;;;5114004;28;19994;-80
2024/01/29 09:05:29;;;;;;;;;;;153.60;2252.80;;;;;;5111425;28;20007;-74
2024/01/29 09:07:54;;;;;;;;;;;153.80;2252.80;;;;;;5097658;28;20314;-77
2024/01/29 09:10:20;;;;;;;;;;;153.80;2252.80;;;;;;5114609;28;20355;-78
2024/01/29 09:12:46;;;;;;;;;;;153.80;2252.80;;;;;;5115882;28;19908;-77
2024/01/29 09:15:11;;;;;;;;;;;153.80;2252.80;;;;;;5116438;28;19904;-76
2024/01/29 09:17:37;;;;;;;;;;;153.90;2252.80;;;;;;5115547;28;20360;-75
2024/01/29 09:20:07;;;;;;;;;;;154.10;2252.80;;;;;;5115724;28;20279;-77
2024/01/29 09:22:33;;;;;;;;;;;154.10;2252.80;;;;;;5115465;28;19911;-77
2024/01/29 09:24:58;;;;;;;;;;;154.00;2252.80;;;;;;5115392;28;19919;-80
2024/01/29 09:27:24;;;;;;;;;;;154.10;2252.80;;;;;;5115929;28;19911;-77
2024/01/29 09:29:49;;;;;;;;;;;154.10;2252.80;;;;;;5115732;28;19992;-75
2024/01/29 09:32:15;;;;;;;;;;;154.30;2252.80;;;;;;5114417;28;19933;-77
2024/01/29 09:34:40;;;;;;;;;;;179.20;2252.80;;;;;;5094819;28;19915;-77
2024/01/29 09:37:06;;;;;;;;;;;179.30;2252.80;;;;;;5096622;28;19954;-78
2024/01/29 09:39:32;;;;;;;;;;;179.30;2252.80;;;;;;5114118;28;20404;-77
2024/01/29 09:42:04;;;;;;;;;;;179.30;2252.80;;;;;;5115309;28;19914;-77
2024/01/29 09:44:38;;;;;;;;;;;179.30;2252.80;;;;;;5095505;28;19907;-76
2024/01/29 09:47:07;;;;;;;;;;;179.70;2252.80;;;;;;5095694;28;19958;-78
2024/01/29 09:49:37;;;;;;;;;;;179.90;2252.80;;;;;;5088980;28;20401;-78
2024/01/29 09:52:04;;;;;;;;;;;180.10;2252.80;;;;;;5113285;28;19957;-79
2024/01/29 09:54:30;;;;;;;;;;;205.10;2252.80;;;;;;5110611;28;19942;-78
2024/01/29 09:56:55;;;;;;;;;;;205.30;2252.80;;;;;;5098002;28;19912;-77
2024/01/29 09:59:22;;;;;;;;;;;205.40;2252.80;;;;;;5107923;28;19961;-77
2024/01/29 10:01:47;;;;;;;;;;;205.50;2252.80;;;;;;5085712;28;20377;-78
2024/01/29 10:04:13;;;;;;;;;;;230.50;2252.80;;;;;;5076944;28;19942;-76
2024/01/29 10:06:39;;;;;;;;;;;230.80;2252.80;;;;;;5101383;28;20315;-78
2024/01/29 10:09:05;;;;;;;;;;;231.20;2252.80;;;;;;5113405;28;19911;-78
2024/01/29 10:11:30;;;;;;;;;;;256.10;2252.80;;;;;;5106487;28;19929;-76
2024/01/29 10:13:59;;;;;;;;;;;256.40;2201.60;;;;;;5099966;28;19957;-77
2024/01/29 10:16:26;;;;;;;;;;;256.70;2124.80;;;;;;5107340;28;19907;-77
2024/01/29 10:18:55;;;;;;;;;;;256.90;2048.00;;;;;;5078963;28;19918;-79
2024/01/29 10:21:20;;;;;;;;;;;281.90;2022.40;;;;;;5080890;28;19957;-78
2024/01/29 10:23:53;;;;;;;;;;;282.00;2022.40;;;;;;5086760;28;19912;-76
2024/01/29 10:26:21;;;;;;;;;;;282.40;1920.00;;;;;;5099163;28;19912;-76
2024/01/29 10:28:47;;;;;;;;;;;307.20;1920.00;;;;;;5113178;28;20257;-79
2024/01/29 10:31:14;;;;;;;;;;;307.30;1920.00;;;;;;5085162;28;19908;-76
2024/01/29 10:33:40;;;;;;;;;;;307.30;1920.00;;;;;;5102948;28;19915;-76
2024/01/29 10:36:07;;;;;;;;;;;307.60;1843.20;;;;;;5090027;28;19978;-76
2024/01/29 10:38:33;;;;;;;;;;;307.60;1817.60;;;;;;5091145;28;19908;-77
2024/01/29 10:40:59;;;;;;;;;;;307.70;1792.00;;;;;;5110373;28;20342;-78
2024/01/29 10:43:27;;;;;;;;;;;307.80;1766.40;;;;;;5088804;28;19919;-77
2024/01/29 10:45:54;;;;;;;;;;;308.10;1740.80;;;;;;5084502;28;19973;-78
2024/01/29 10:48:20;;;;;;;;;;;332.90;1740.80;;;;;;5087854;28;19916;-77
2024/01/29 10:50:46;;;;;;;;;;;332.80;1715.20;;;;;;5080981;28;19928;-76
2024/01/29 10:53:13;;;;;;;;;;;333.20;1715.20;;;;;;5083839;28;19922;-77
2024/01/29 10:55:39;;;;;;;;;;;333.30;1715.20;;;;;;5089764;28;19912;-76
2024/01/29 10:58:05;;;;;;;;;;;333.40;1689.60;;;;;;5084080;28;19911;-77
2024/01/29 11:00:33;;;;;;;;;;;333.30;1715.20;;;;;;5092491;28;20006;-76
2024/01/29 11:02:59;;;;;;;;;;;333.50;1689.60;;;;;;5098207;27;19934;-75
2024/01/29 11:05:25;;;;;;;;;;;333.60;1689.60;;;;;;5086659;28;19946;-76
2024/01/29 11:07:53;;;;;;;;;;;333.70;1689.60;;;;;;5100324;28;19970;-77
2024/01/29 11:10:22;;;;;;;;;;;358.40;1638.40;;;;;;5102170;28;19908;-79
2024/01/29 11:12:50;;;;;;;;;;;358.40;1638.40;;;;;;5096733;28;19908;-77
2024/01/29 11:15:16;;;;;;;;;;;333.30;1689.60;;;;;;5100337;28;19957;-78
2024/01/29 11:17:42;;;;;;;;;;;308.00;1740.80;;;;;;5102889;28;19932;-77
2024/01/29 11:20:10;;;;;;;;;;;333.00;1715.20;;;;;;5088012;28;19903;-78
2024/01/29 11:22:40;;;;;;;;;;;333.10;1689.60;;;;;;5102154;28;19919;-78
2024/01/29 11:25:12;;;;;;;;;;;333.20;1689.60;;;;;;5087401;28;19961;-77
2024/01/29 11:27:38;;;;;;;;;;;333.30;1689.60;;;;;;5087265;28;19915;-75
2024/01/29 11:30:33;;;;;;;;;;;333.40;1689.60;;;;;;5100889;28;19953;-76
2024/01/29 11:33:14;;;;;;;;;;;333.50;1689.60;;;;;;5085137;28;19912;-77
2024/01/29 11:35:40;;;;;;;;;;;333.40;1715.20;;;;;;5061124;28;19930;-76
2024/01/29 11:38:07;;;;;;;;;;;333.40;1689.60;;;;;;5081211;28;20440;-75
2024/01/29 11:40:40;;;;;;;;;;;333.60;1689.60;;;;;;5079958;28;19912;-76
2024/01/29 11:43:18;;;;;;;;;;;333.10;1689.60;;;;;;5069455;28;19911;-76
2024/01/29 11:45:50;;;;;;;;;;;333.20;1715.20;;;;;;5074509;28;19952;-76
2024/01/29 11:48:17;;;;;;;;;;;308.10;1740.80;;;;;;5066890;28;19927;-76
2024/01/29 11:50:45;;;;;;;;;;;332.80;1792.00;;;;;;5070957;28;19915;-74
2024/01/29 11:53:11;;;;;;;;;;;308.00;1792.00;;;;;;5052277;28;19920;-76
2024/01/29 11:55:37;;;;;;;;;;;307.70;1817.60;;;;;;5053833;28;19919;-76
2024/01/29 11:58:03;;;;;;;;;;;307.80;1843.20;;;;;;5071279;28;19905;-77
2024/01/29 12:00:28;;;;;;;;;;;308.10;1817.60;;;;;;5063691;28;19956;-81
2024/01/29 12:02:54;;;;;;;;;;;308.00;1817.60;;;;;;5064785;28;19908;-78
2024/01/29 12:05:20;;;;;;;;;;;308.10;1766.40;;;;;;5052971;28;19908;-78
2024/01/29 12:07:46;;;;;;;;;;;332.80;1792.00;;;;;;5049202;28;20022;-79
2024/01/29 12:10:12;;;;;;;;;;;308.10;1766.40;;;;;;5085780;28;19908;-79
2024/01/29 12:12:38;;;;;;;;;;;308.00;1792.00;;;;;;5098785;28;19908;-76
2024/01/29 12:15:03;;;;;;;;;;;307.90;1792.00;;;;;;5089532;28;20353;-76
2024/01/29 12:17:29;;;;;;;;;;;308.10;1792.00;;;;;;5084501;28;19915;-77
2024/01/29 12:19:55;;;;;;;;;;;307.90;1817.60;;;;;;5086446;28;19908;-77
2024/01/29 12:22:21;;;;;;;;;;;308.00;1817.60;;;;;;5093147;28;19915;-77
2024/01/29 12:24:46;;;;;;;;;;;308.00;1868.80;;;;;;5095567;28;19957;-78
2024/01/29 12:27:12;;;;;;;;;;;307.90;1843.20;;;;;;5104763;28;19916;-79
2024/01/29 12:29:38;;;;;;;;;;;307.80;1843.20;;;;;;5100510;28;19991;-77
2024/01/29 12:32:11;;;;;;;;;;;307.80;1817.60;;;;;;5107780;28;19935;-77
2024/01/29 12:34:46;;;;;;;;;;;307.80;1843.20;;;;;;5087167;28;20426;-78
2024/01/29 12:37:22;;;;;;;;;;;307.70;1817.60;;;;;;5086654;28;20413;-78
2024/01/29 12:39:52;;;;;;;;;;;307.70;1817.60;;;;;;5088416;28;19908;-78
2024/01/29 12:42:18;;;;;;;;;;;307.60;1817.60;;;;;;5086962;28;19908;-78
2024/01/29 12:44:44;;;;;;;;;;;307.80;1817.60;;;;;;5087590;28;19908;-78
2024/01/29 12:47:13;;;;;;;;;;;307.50;1843.20;;;;;;5088166;28;19939;-77
2024/01/29 12:49:39;;;;;;;;;;;307.30;1894.40;;;;;;5089533;28;19908;-77
2024/01/29 12:52:04;;;;;;;;;;;281.80;1817.60;;;;;;5096598;28;19954;-78
2024/01/29 12:54:30;;;;;;;;;;;307.20;1868.80;;;;;;5082431;28;19955;-76
2024/01/29 12:56:56;;;;;;;;;;;307.20;1920.00;;;;;;5088723;28;19961;-77
2024/01/29 12:59:21;;;;;;;;;;;282.20;1945.60;;;;;;5095895;28;19915;-78
2024/01/29 13:01:47;;;;;;;;;;;282.30;1971.20;;;;;;5112202;28;20280;-77
2024/01/29 13:04:12;;;;;;;;;;;282.40;1971.20;;;;;;5093711;28;19912;-77
2024/01/29 13:06:38;;;;;;;;;;;281.90;1996.80;;;;;;5090696;28;19922;-78
2024/01/29 13:09:04;;;;;;;;;;;256.90;2022.40;;;;;;5088980;28;20273;-78
2024/01/29 13:11:30;;;;;;;;;;;256.70;2073.60;;;;;;5081814;28;19911;-78
2024/01/29 13:13:57;;;;;;;;;;;256.70;2176.00;;;;;;5102768;28;20011;-77
2024/01/29 13:16:22;;;;;;;;;;;256.80;2227.20;;;;;;5106311;28;20353;-77
2024/01/29 13:18:48;;;;;;;;;;;281.60;2227.20;;;;;;5114041;28;19903;-78
2024/01/29 13:21:15;;;;;;;;;;;256.90;2099.20;;;;;;5090007;28;19912;-78
2024/01/29 13:23:41;;;;;;;;;;;256.70;2201.60;;;;;;5091327;28;19933;-77
2024/01/29 13:26:07;;;;;;;;;;;256.50;2252.80;;;;;;5110397;28;19908;-78
2024/01/29 13:28:33;;;;;;;;;;;256.40;2227.20;;;;;;5095508;28;19907;-78
2024/01/29 13:30:58;;;;;;;;;;;256.10;2252.80;;;;;;5081098;28;19927;-79
2024/01/29 13:33:24;;;;;;;;;;;231.30;2252.80;;;;;;5111562;28;19915;-78
2024/01/29 13:35:50;;;;;;;;;;;256.00;2252.80;;;;;;5085640;28;19966;-74
2024/01/29 13:38:16;;;;;;;;;;;256.00;2252.80;;;;;;5104785;28;20426;-76